sensor_id;sensor_type;location;lat;lon;timestamp;P1;durP1;ratioP1;P2;durP2;ratioP2
14774;SDS011;7479;47.042;15.160;2023-02-23T07:51:44;28.93;;;17.20;;
14774;SDS011;7479;47.042;15.160;2023-02-23T08:03:20;42.60;;;21.13;;
14774;SDS011;7479;47.042;15.160;2023-02-23T08:18:36;31.97;;;19.57;;
14774;SDS011;7479;47.042;15.160;2023-02-23T08:28:35;31.20;;;20.43;;
14774;SDS011;7479;47.042;15.160;2023-02-23T08:33:28;42.90;;;21.27;;
14774;SDS011;7479;47.042;15.160;2023-02-23T08:38:23;35.87;;;19.67;;
14774;SDS011;7479;47.042;15.160;2023-02-23T08:43:17;36.43;;;19.70;;
14774;SDS011;7479;47.042;15.160;2023-02-23T08:48:12;27.80;;;18.20;;
14774;SDS011;7479;47.042;15.160;2023-02-23T08:53:05;29.00;;;19.10;;
14774;SDS011;7479;47.042;15.160;2023-02-23T08:57:59;29.27;;;18.83;;
14774;SDS011;7479;47.042;15.160;2023-02-23T09:02:55;30.87;;;18.67;;
14774;SDS011;7479;47.042;15.160;2023-02-23T09:07:50;30.37;;;18.27;;
14774;SDS011;7479;47.042;15.160;2023-02-23T09:12:44;27.80;;;18.13;;
14774;SDS011;7479;47.042;15.160;2023-02-23T09:36:35;32.87;;;18.00;;
14774;SDS011;7479;47.042;15.160;2023-02-23T10:22:19;27.57;;;18.00;;
14774;SDS011;7479;47.042;15.160;2023-02-23T10:33:23;28.70;;;19.47;;
14774;SDS011;7479;47.042;15.160;2023-02-23T10:38:23;22.57;;;15.43;;
14774;SDS011;7479;47.042;15.160;2023-02-23T10:43:16;22.77;;;16.17;;
14774;SDS011;7479;47.042;15.160;2023-02-23T10:48:13;24.17;;;16.97;;
14774;SDS011;7479;47.042;15.160;2023-02-23T10:53:13;28.13;;;17.63;;
14774;SDS011;7479;47.042;15.160;2023-02-23T10:58:11;26.13;;;17.57;;
14774;SDS011;7479;47.042;15.160;2023-02-23T11:03:15;25.53;;;16.87;;
14774;SDS011;7479;47.042;15.160;2023-02-23T11:13:22;23.93;;;16.80;;
14774;SDS011;7479;47.042;15.160;2023-02-23T11:18:19;24.77;;;15.30;;
14774;SDS011;7479;47.042;15.160;2023-02-23T11:23:21;26.60;;;16.53;;
14774;SDS011;7479;47.042;15.160;2023-02-23T11:28:23;21.20;;;15.63;;
14774;SDS011;7479;47.042;15.160;2023-02-23T11:33:22;23.73;;;16.37;;
14774;SDS011;7479;47.042;15.160;2023-02-23T11:38:23;31.83;;;17.60;;
14774;SDS011;7479;47.042;15.160;2023-02-23T11:43:20;28.67;;;15.90;;
14774;SDS011;7479;47.042;15.160;2023-02-23T11:48:18;21.07;;;15.83;;
14774;SDS011;7479;47.042;15.160;2023-02-23T11:53:14;25.87;;;18.07;;
14774;SDS011;7479;47.042;15.160;2023-02-23T11:58:16;29.37;;;19.23;;
14774;SDS011;7479;47.042;15.160;2023-02-23T12:03:19;27.07;;;17.40;;
14774;SDS011;7479;47.042;15.160;2023-02-23T12:08:17;23.70;;;17.17;;
14774;SDS011;7479;47.042;15.160;2023-02-23T12:13:21;26.90;;;17.73;;
14774;SDS011;7479;47.042;15.160;2023-02-23T12:18:29;27.47;;;18.17;;
14774;SDS011;7479;47.042;15.160;2023-02-23T12:23:34;29.27;;;19.57;;
14774;SDS011;7479;47.042;15.160;2023-02-23T12:28:35;29.77;;;19.83;;
14774;SDS011;7479;47.042;15.160;2023-02-23T12:33:32;28.60;;;20.53;;
14774;SDS011;7479;47.042;15.160;2023-02-23T12:38:43;32.37;;;21.93;;
14774;SDS011;7479;47.042;15.160;2023-02-23T12:43:45;35.87;;;23.97;;
14774;SDS011;7479;47.042;15.160;2023-02-23T12:48:45;33.43;;;22.93;;
14774;SDS011;7479;47.042;15.160;2023-02-23T12:53:48;35.13;;;23.17;;
14774;SDS011;7479;47.042;15.160;2023-02-23T12:58:46;36.17;;;23.50;;
14774;SDS011;7479;47.042;15.160;2023-02-23T13:03:51;34.73;;;23.47;;
14774;SDS011;7479;47.042;15.160;2023-02-23T13:09:12;35.17;;;24.00;;
14774;SDS011;7479;47.042;15.160;2023-02-23T15:14:29;35.53;;;24.37;;
14774;SDS011;7479;47.042;15.160;2023-02-23T15:19:27;40.20;;;24.57;;
14774;SDS011;7479;47.042;15.160;2023-02-23T15:24:26;40.17;;;27.33;;
14774;SDS011;7479;47.042;15.160;2023-02-23T15:29:23;35.73;;;24.97;;
14774;SDS011;7479;47.042;15.160;2023-02-23T15:34:20;37.83;;;25.13;;
14774;SDS011;7479;47.042;15.160;2023-02-23T15:39:16;36.60;;;24.63;;
14774;SDS011;7479;47.042;15.160;2023-02-23T15:44:15;40.50;;;24.93;;
14774;SDS011;7479;47.042;15.160;2023-02-23T15:49:14;33.87;;;25.03;;
14774;SDS011;7479;47.042;15.160;2023-02-23T15:54:14;42.37;;;26.73;;
